createdAt,value
2023-04-18T00:00:48.883Z,10.69
2023-04-18T00:03:22.039Z,10.65
2023-04-18T00:05:51.315Z,10.66
2023-04-18T00:08:20.064Z,10.50
2023-04-18T00:10:49.011Z,10.32
2023-04-18T00:13:18.464Z,10.57
2023-04-18T00:15:47.500Z,10.66
2023-04-18T00:18:17.402Z,10.44
2023-04-18T00:20:47.963Z,10.51
2023-04-18T00:23:16.513Z,10.56
2023-04-18T00:25:45.528Z,10.54
2023-04-18T00:28:14.225Z,10.60
2023-04-18T00:30:43.164Z,10.27
2023-04-18T00:33:11.759Z,10.37
2023-04-18T00:35:40.947Z,10.34
2023-04-18T00:38:11.234Z,10.54
2023-04-18T00:40:41.933Z,10.43
2023-04-18T00:43:10.509Z,10.18
2023-04-18T00:45:43.075Z,10.36
2023-04-18T00:48:12.879Z,10.21
2023-04-18T00:50:41.943Z,10.38
2023-04-18T00:53:12.510Z,10.56
2023-04-18T00:55:42.272Z,10.43
2023-04-18T00:58:10.931Z,10.40
2023-04-18T01:00:39.747Z,10.56
2023-04-18T01:03:10.732Z,10.60
2023-04-18T01:05:40.165Z,10.60
2023-04-18T01:08:08.730Z,10.64
2023-04-18T01:10:39.022Z,10.70
2023-04-18T01:13:18.258Z,10.88
2023-04-18T01:15:49.884Z,10.52
2023-04-18T01:18:19.307Z,10.45
2023-04-18T01:20:49.956Z,10.42
2023-04-18T01:23:19.862Z,10.59
2023-04-18T01:25:50.610Z,10.64
2023-04-18T01:28:21.406Z,10.28
2023-04-18T01:30:50.740Z,10.30
2023-04-18T01:33:19.403Z,10.55
2023-04-18T01:35:49.950Z,10.19
2023-04-18T01:38:18.516Z,10.09
2023-04-18T01:40:47.905Z,10.26
2023-04-18T01:43:18.238Z,10.10
2023-04-18T01:45:47.225Z,10.09
2023-04-18T01:48:15.819Z,10.20
2023-04-18T01:50:45.304Z,10.16
2023-04-18T01:53:14.443Z,10.26
2023-04-18T01:55:46.141Z,10.30
2023-04-18T01:58:15.750Z,10.55
2023-04-18T02:00:46.272Z,10.23
2023-04-18T02:03:15.051Z,10.40
2023-04-18T02:05:44.277Z,10.51
2023-04-18T02:08:13.034Z,10.51
2023-04-18T02:10:42.730Z,10.31
2023-04-18T02:13:11.376Z,10.36
2023-04-18T02:15:40.362Z,10.21
2023-04-18T02:18:11.641Z,10.27
2023-04-18T02:20:41.886Z,9.94
2023-04-18T02:23:10.917Z,10.21
2023-04-18T02:25:39.752Z,10.20
2023-04-18T02:28:08.363Z,10.32
2023-04-18T02:30:37.202Z,10.10
2023-04-18T02:33:05.790Z,10.02
2023-04-18T02:35:38.387Z,10.01
2023-04-18T02:38:06.924Z,9.98
2023-04-18T02:40:35.887Z,9.80
2023-04-18T02:43:04.460Z,9.85
2023-04-18T02:45:33.816Z,9.98
2023-04-18T02:48:02.650Z,9.92
2023-04-18T02:50:32.188Z,9.94
2023-04-18T02:53:02.297Z,10.10
2023-04-18T02:55:43.759Z,9.87
2023-04-18T02:58:13.345Z,9.92
2023-04-18T03:01:00.694Z,9.91
2023-04-18T03:03:46.633Z,10.12
2023-04-18T03:06:27.332Z,9.88
2023-04-18T03:08:57.572Z,9.90
2023-04-18T03:11:27.803Z,9.92
2023-04-18T03:13:57.700Z,9.82
2023-04-18T03:16:32.322Z,9.79
2023-04-18T03:19:01.602Z,9.95
2023-04-18T03:21:31.573Z,9.85
2023-04-18T03:24:01.707Z,9.95
2023-04-18T03:26:30.717Z,9.92
2023-04-18T03:28:59.389Z,9.78
2023-04-18T03:31:28.319Z,9.73
2023-04-18T03:33:57.255Z,9.74
2023-04-18T03:36:27.386Z,9.80
2023-04-18T03:38:56.627Z,9.56
2023-04-18T03:41:28.215Z,9.71
2023-04-18T03:43:59.076Z,9.72
2023-04-18T03:46:29.150Z,9.52
2023-04-18T03:48:58.923Z,9.65
2023-04-18T03:51:28.598Z,9.79
2023-04-18T03:53:58.158Z,9.80
2023-04-18T03:56:28.541Z,9.89
2023-04-18T03:58:58.965Z,9.61
2023-04-18T04:01:28.505Z,9.89
2023-04-18T04:03:57.307Z,10.01
2023-04-18T04:06:27.453Z,9.88
2023-04-18T04:08:56.647Z,9.93
2023-04-18T04:11:29.207Z,9.94
2023-04-18T04:13:57.933Z,9.89
2023-04-18T04:16:32.962Z,9.74
2023-04-18T04:19:02.178Z,9.61
2023-04-18T04:21:38.561Z,9.66
2023-04-18T04:24:10.098Z,9.76
2023-04-18T04:26:44.237Z,9.80
2023-04-18T04:29:16.450Z,9.83
2023-04-18T04:31:48.320Z,9.59
2023-04-18T04:34:25.588Z,9.70
2023-04-18T04:36:56.187Z,9.75
2023-04-18T04:39:26.683Z,9.68
2023-04-18T04:42:17.728Z,9.67
2023-04-18T04:44:55.885Z,9.65
2023-04-18T04:47:26.435Z,9.76
2023-04-18T04:49:56.174Z,9.64
2023-04-18T04:52:25.124Z,9.78
2023-04-18T04:54:53.757Z,9.84
2023-04-18T04:57:26.894Z,9.86
2023-04-18T04:59:55.493Z,9.78
2023-04-18T05:02:25.111Z,9.86
2023-04-18T05:04:53.783Z,9.93
2023-04-18T05:07:22.701Z,9.90
2023-04-18T05:09:53.216Z,10.22
2023-04-18T05:12:22.135Z,10.28
2023-04-18T05:14:52.160Z,10.41
2023-04-18T05:17:21.030Z,10.49
2023-04-18T05:19:49.663Z,10.53
2023-04-18T05:22:18.563Z,10.20
2023-04-18T05:24:47.640Z,10.30
2023-04-18T05:27:18.112Z,10.37
2023-04-18T05:29:47.852Z,10.36
2023-04-18T05:32:18.272Z,10.62
2023-04-18T05:34:46.988Z,10.72
2023-04-18T05:37:16.263Z,10.67
2023-04-18T05:39:45.054Z,10.55
2023-04-18T05:42:14.050Z,10.62
2023-04-18T05:44:42.619Z,10.63
2023-04-18T05:47:11.501Z,10.57
2023-04-18T05:49:41.565Z,10.57
2023-04-18T05:52:11.430Z,10.70
2023-04-18T05:54:40.075Z,10.40
2023-04-18T05:57:08.953Z,10.32
2023-04-18T05:59:37.734Z,10.33
2023-04-18T06:02:13.151Z,10.46
2023-04-18T06:04:44.157Z,10.34
2023-04-18T06:07:13.313Z,10.45
2023-04-18T06:09:42.146Z,10.43
2023-04-18T06:12:11.264Z,10.59
2023-04-18T06:14:40.020Z,10.48
2023-04-18T06:17:10.196Z,10.38
2023-04-18T06:19:40.580Z,10.53
2023-04-18T06:22:10.935Z,10.62
2023-04-18T06:24:39.686Z,10.47
2023-04-18T06:27:15.041Z,10.71
2023-04-18T06:29:49.318Z,10.79
2023-04-18T06:32:18.401Z,11.02
2023-04-18T06:34:47.034Z,10.91
2023-04-18T06:37:18.007Z,10.95
2023-04-18T06:39:46.909Z,10.96
2023-04-18T06:42:15.956Z,11.00
2023-04-18T06:44:49.554Z,11.10
2023-04-18T06:47:18.655Z,11.10
2023-04-18T06:49:47.415Z,11.02
2023-04-18T06:52:17.625Z,11.20
2023-04-18T06:54:46.165Z,11.31
2023-04-18T06:57:15.313Z,11.35
2023-04-18T06:59:44.025Z,11.61
2023-04-18T07:02:13.400Z,11.68
2023-04-18T07:04:42.354Z,11.73
2023-04-18T07:07:11.471Z,11.85
2023-04-18T07:09:41.508Z,11.65
2023-04-18T07:12:10.480Z,11.86
2023-04-18T07:14:39.119Z,11.81
2023-04-18T07:17:08.686Z,11.88
2023-04-18T07:19:37.390Z,11.89
2023-04-18T07:22:06.433Z,11.67
2023-04-18T07:24:35.130Z,11.59
2023-04-18T07:27:05.808Z,11.74
2023-04-18T07:29:34.457Z,11.51
2023-04-18T07:32:05.171Z,11.66
2023-04-18T07:34:36.364Z,11.55
2023-04-18T07:37:05.392Z,11.63
2023-04-18T07:39:36.159Z,11.60
2023-04-18T07:42:06.983Z,11.38
2023-04-18T07:44:36.789Z,11.58
2023-04-18T07:47:10.027Z,11.32
2023-04-18T07:49:39.490Z,11.67
2023-04-18T07:52:08.604Z,11.60
2023-04-18T07:54:37.203Z,11.70
2023-04-18T07:57:07.497Z,11.87
2023-04-18T07:59:36.296Z,11.85
2023-04-18T08:02:05.270Z,11.85
2023-04-18T08:04:34.335Z,12.10
2023-04-18T08:07:03.370Z,11.85
2023-04-18T08:09:31.999Z,11.97
2023-04-18T08:12:01.059Z,12.24
2023-04-18T08:14:31.268Z,12.25
2023-04-18T08:17:01.623Z,12.18
2023-04-18T08:19:30.925Z,12.18
2023-04-18T08:22:10.488Z,12.67
2023-04-18T08:24:40.115Z,12.71
2023-04-18T08:27:09.118Z,12.83
2023-04-18T08:29:39.294Z,12.80
2023-04-18T08:32:09.380Z,12.87
2023-04-18T08:34:38.276Z,12.83
2023-04-18T08:37:07.393Z,12.87
2023-04-18T08:39:36.271Z,13.13
2023-04-18T08:42:07.716Z,13.16
2023-04-18T08:44:37.394Z,13.47
2023-04-18T08:47:09.523Z,13.60
2023-04-18T08:49:38.281Z,13.68
2023-04-18T08:52:12.603Z,14.00
2023-04-18T08:54:44.324Z,13.75
2023-04-18T08:57:16.589Z,13.96
2023-04-18T08:59:49.641Z,14.08
2023-04-18T09:02:23.446Z,13.96
2023-04-18T09:04:53.870Z,13.97
2023-04-18T09:07:30.163Z,13.80
2023-04-18T09:09:59.623Z,14.07
2023-04-18T09:12:32.860Z,14.09
2023-04-18T09:15:13.906Z,14.31
2023-04-18T09:17:49.778Z,14.30
2023-04-18T09:20:34.679Z,14.12
2023-04-18T09:23:05.622Z,14.30
2023-04-18T09:25:40.103Z,14.46
2023-04-18T09:28:24.743Z,14.52
2023-04-18T09:30:54.803Z,14.35
2023-04-18T09:33:29.584Z,14.66
2023-04-18T09:36:16.771Z,14.83
2023-04-18T09:38:46.415Z,14.91
2023-04-18T09:41:19.931Z,14.95
2023-04-18T09:43:50.677Z,15.12
2023-04-18T09:46:22.609Z,15.32
2023-04-18T09:48:53.177Z,15.09
2023-04-18T09:51:21.798Z,15.29
2023-04-18T09:53:51.164Z,15.54
2023-04-18T09:56:25.900Z,15.49
2023-04-18T09:58:58.303Z,15.64
2023-04-18T10:01:29.715Z,15.72
2023-04-18T10:04:04.298Z,15.57
2023-04-18T10:06:38.562Z,15.32
2023-04-18T10:09:10.909Z,15.45
2023-04-18T10:11:39.783Z,15.40
2023-04-18T10:14:12.751Z,15.40
2023-04-18T10:16:43.301Z,15.64
2023-04-18T10:19:31.886Z,15.66
2023-04-18T10:22:01.613Z,15.73
2023-04-18T10:24:48.362Z,15.77
2023-04-18T10:27:17.552Z,15.60
2023-04-18T10:29:50.923Z,15.82
2023-04-18T10:32:20.709Z,15.86
2023-04-18T10:34:53.546Z,15.81
2023-04-18T10:37:22.114Z,15.89
2023-04-18T10:39:57.061Z,16.01
2023-04-18T10:42:58.993Z,16.39
2023-04-18T10:45:31.424Z,15.96
2023-04-18T10:48:30.071Z,15.88
2023-04-18T10:51:24.334Z,15.82
2023-04-18T10:53:55.300Z,15.66
2023-04-18T10:56:26.353Z,15.86
2023-04-18T10:58:57.417Z,16.01
2023-04-18T11:01:32.185Z,15.65
2023-04-18T11:04:02.047Z,15.82
2023-04-18T11:06:32.646Z,15.73
2023-04-18T11:09:11.781Z,15.47
2023-04-18T11:11:41.511Z,15.30
2023-04-18T11:14:10.281Z,15.16
2023-04-18T11:16:39.326Z,15.08
2023-04-18T11:19:23.346Z,15.34
2023-04-18T11:21:54.247Z,15.29
2023-04-18T11:24:24.386Z,14.88
2023-04-18T11:26:55.938Z,15.06
2023-04-18T11:29:24.980Z,15.03
2023-04-18T11:31:58.303Z,15.10
2023-04-18T11:34:30.568Z,15.06
2023-04-18T11:37:00.890Z,15.26
2023-04-18T11:39:29.599Z,15.32
2023-04-18T11:42:01.809Z,15.20
2023-04-18T11:44:30.494Z,15.28
2023-04-18T11:46:59.257Z,15.38
2023-04-18T11:49:29.410Z,15.30
2023-04-18T11:51:58.791Z,14.94
2023-04-18T11:54:39.753Z,15.07
2023-04-18T11:57:20.570Z,15.12
2023-04-18T11:59:51.254Z,14.90
2023-04-18T12:02:20.721Z,15.09
2023-04-18T12:04:57.758Z,14.86
2023-04-18T12:07:38.217Z,14.94
2023-04-18T12:10:10.448Z,14.84
2023-04-18T12:12:48.583Z,14.66
2023-04-18T12:15:18.440Z,14.56
2023-04-18T12:17:49.369Z,14.66
2023-04-18T12:20:18.467Z,14.41
2023-04-18T12:22:49.757Z,14.71
2023-04-18T12:25:26.209Z,14.46
2023-04-18T12:27:59.207Z,14.40
2023-04-18T12:30:29.858Z,14.60
2023-04-18T12:33:01.103Z,14.88
2023-04-18T12:35:31.272Z,14.55
2023-04-18T12:38:03.632Z,14.70
2023-04-18T12:40:33.529Z,14.55
2023-04-18T12:43:03.693Z,14.77
2023-04-18T12:45:32.657Z,14.74
2023-04-18T12:48:02.240Z,14.80
2023-04-18T12:50:31.085Z,15.06
2023-04-18T12:53:01.560Z,15.18
2023-04-18T12:55:30.730Z,15.24
2023-04-18T12:58:01.444Z,15.51
2023-04-18T13:00:33.260Z,15.52
2023-04-18T13:03:11.779Z,15.69
2023-04-18T13:05:42.778Z,15.52
2023-04-18T13:08:17.101Z,15.80
2023-04-18T13:10:47.756Z,15.78
2023-04-18T13:13:18.263Z,15.94
2023-04-18T13:15:47.038Z,15.96
2023-04-18T13:18:16.106Z,16.08
2023-04-18T13:20:45.051Z,16.18
2023-04-18T13:23:14.092Z,16.30
2023-04-18T13:25:44.900Z,16.34
2023-04-18T13:28:13.957Z,16.32
2023-04-18T13:30:43.982Z,16.15
2023-04-18T13:33:13.123Z,16.26
2023-04-18T13:35:42.226Z,16.23
2023-04-18T13:38:11.166Z,16.15
2023-04-18T13:40:39.919Z,16.06
2023-04-18T13:43:11.055Z,15.96
2023-04-18T13:45:39.941Z,16.14
2023-04-18T13:48:13.840Z,15.96
2023-04-18T13:50:43.761Z,15.97
2023-04-18T13:53:12.882Z,16.07
2023-04-18T13:55:42.452Z,16.09
2023-04-18T13:58:11.534Z,16.02
2023-04-18T14:00:40.133Z,16.18
2023-04-18T14:03:09.338Z,16.21
2023-04-18T14:05:39.379Z,16.26
2023-04-18T14:08:08.862Z,16.16
2023-04-18T14:10:37.792Z,15.81
2023-04-18T14:13:06.777Z,15.86
2023-04-18T14:15:35.602Z,15.81
2023-04-18T14:18:05.181Z,15.50
2023-04-18T14:20:35.254Z,15.53
2023-04-18T14:23:06.640Z,15.49
2023-04-18T14:25:35.365Z,15.37
2023-04-18T14:28:09.754Z,15.25
2023-04-18T14:30:39.156Z,15.30
2023-04-18T14:33:09.497Z,15.40
2023-04-18T14:35:38.559Z,15.58
2023-04-18T14:38:09.005Z,15.78
2023-04-18T14:40:38.150Z,15.76
2023-04-18T14:43:07.351Z,15.68
2023-04-18T14:45:36.142Z,15.99
2023-04-18T14:48:06.813Z,16.09
2023-04-18T14:50:38.684Z,16.18
2023-04-18T14:53:09.504Z,16.31
2023-04-18T14:55:38.864Z,16.21
2023-04-18T14:58:08.083Z,16.42
2023-04-18T15:00:37.603Z,16.49
2023-04-18T15:03:09.766Z,16.49
2023-04-18T15:05:42.996Z,16.48
2023-04-18T15:08:14.744Z,16.51
2023-04-18T15:10:44.792Z,16.56
2023-04-18T15:13:14.712Z,16.57
2023-04-18T15:15:43.466Z,16.58
2023-04-18T15:18:13.858Z,16.73
2023-04-18T15:21:03.078Z,16.73
2023-04-18T15:23:34.852Z,16.82
2023-04-18T15:26:04.968Z,16.75
2023-04-18T15:28:34.548Z,16.71
2023-04-18T15:31:03.291Z,16.49
2023-04-18T15:33:32.441Z,16.61
2023-04-18T15:36:01.089Z,16.69
2023-04-18T15:38:33.368Z,16.68
2023-04-18T15:41:03.899Z,16.70
2023-04-18T15:43:32.954Z,16.66
2023-04-18T15:46:02.011Z,16.70
2023-04-18T15:48:34.190Z,16.67
2023-04-18T15:51:03.302Z,16.60
2023-04-18T15:53:32.734Z,16.69
2023-04-18T15:56:02.222Z,16.55
2023-04-18T15:58:32.672Z,16.48
2023-04-18T16:01:02.111Z,16.59
2023-04-18T16:03:31.795Z,16.57
2023-04-18T16:06:00.869Z,16.59
2023-04-18T16:08:32.603Z,16.48
2023-04-18T16:11:02.046Z,16.50
2023-04-18T16:13:38.313Z,16.49
2023-04-18T16:16:07.770Z,16.35
2023-04-18T16:18:36.789Z,16.26
2023-04-18T16:21:05.971Z,16.11
2023-04-18T16:23:35.057Z,16.12
2023-04-18T16:26:03.846Z,16.13
2023-04-18T16:28:37.718Z,16.14
2023-04-18T16:31:06.872Z,16.02
2023-04-18T16:33:35.942Z,15.57
2023-04-18T16:36:05.541Z,15.67
2023-04-18T16:38:34.999Z,15.56
2023-04-18T16:41:04.114Z,15.48
2023-04-18T16:43:36.642Z,15.44
2023-04-18T16:46:05.738Z,15.43
2023-04-18T16:48:37.855Z,15.28
2023-04-18T16:51:06.904Z,15.16
2023-04-18T16:53:36.111Z,14.96
2023-04-18T16:56:05.088Z,14.77
2023-04-18T16:58:35.965Z,14.61
2023-04-18T17:01:05.105Z,14.72
2023-04-18T17:03:34.218Z,14.76
2023-04-18T17:06:03.310Z,14.75
2023-04-18T17:08:33.693Z,14.70
2023-04-18T17:11:05.475Z,14.51
2023-04-18T17:13:36.414Z,14.51
2023-04-18T17:16:06.164Z,14.56
2023-04-18T17:18:35.715Z,14.58
2023-04-18T17:21:04.698Z,14.62
2023-04-18T17:23:34.777Z,14.65
2023-04-18T17:26:03.488Z,14.69
2023-04-18T17:28:33.590Z,14.60
2023-04-18T17:31:03.970Z,14.65
2023-04-18T17:33:33.635Z,14.61
2023-04-18T17:36:03.287Z,14.55
2023-04-18T17:38:34.150Z,14.45
2023-04-18T17:41:04.657Z,14.48
2023-04-18T17:43:33.650Z,14.25
2023-04-18T17:46:03.884Z,14.31
2023-04-18T17:48:33.006Z,14.32
2023-04-18T17:51:02.124Z,14.28
2023-04-18T17:53:32.279Z,14.26
2023-04-18T17:56:01.312Z,14.31
2023-04-18T17:58:30.452Z,14.21
2023-04-18T18:00:59.188Z,14.13
2023-04-18T18:03:29.929Z,14.06
2023-04-18T18:05:58.595Z,14.01
2023-04-18T18:08:27.985Z,13.96
2023-04-18T18:10:56.661Z,13.95
2023-04-18T18:13:25.748Z,13.87
2023-04-18T18:15:55.466Z,13.99
2023-04-18T18:18:31.513Z,14.05
2023-04-18T18:21:00.278Z,14.06
2023-04-18T18:23:29.503Z,14.06
2023-04-18T18:25:58.100Z,14.06
2023-04-18T18:28:27.330Z,14.05
2023-04-18T18:30:56.027Z,14.10
2023-04-18T18:33:25.257Z,14.13
2023-04-18T18:35:57.911Z,14.18
2023-04-18T18:38:27.662Z,14.22
2023-04-18T18:40:56.365Z,14.24
2023-04-18T18:43:26.352Z,14.28
2023-04-18T18:45:55.301Z,14.32
2023-04-18T18:48:24.616Z,14.35
2023-04-18T18:50:53.306Z,13.76
2023-04-18T18:53:23.771Z,13.36
2023-04-18T18:55:52.400Z,13.56
2023-04-18T18:58:21.678Z,13.55
2023-04-18T19:00:51.203Z,13.64
2023-04-18T19:03:21.416Z,13.73
2023-04-18T19:05:50.389Z,13.79
2023-04-18T19:08:19.343Z,13.65
2023-04-18T19:10:49.398Z,13.49
2023-04-18T19:13:20.411Z,13.49
2023-04-18T19:15:49.104Z,13.62
2023-04-18T19:18:19.559Z,13.68
2023-04-18T19:20:50.789Z,13.72
2023-04-18T19:23:19.736Z,13.74
2023-04-18T19:25:49.771Z,13.84
2023-04-18T19:28:19.131Z,13.81
2023-04-18T19:30:48.178Z,13.86
2023-04-18T19:33:17.385Z,13.95
2023-04-18T19:35:46.098Z,14.02
2023-04-18T19:38:15.170Z,14.06
2023-04-18T19:40:44.023Z,14.12
2023-04-18T19:43:14.452Z,14.20
2023-04-18T19:45:43.439Z,14.18
2023-04-18T19:48:12.346Z,14.18
2023-04-18T19:50:42.216Z,14.20
2023-04-18T19:53:12.334Z,14.16
2023-04-18T19:55:41.828Z,14.16
2023-04-18T19:58:11.071Z,13.22
2023-04-18T20:00:41.593Z,13.30
2023-04-18T20:03:11.176Z,12.84
2023-04-18T20:05:40.094Z,12.47
2023-04-18T20:08:10.229Z,11.86
2023-04-18T20:10:39.238Z,11.63
2023-04-18T20:13:08.471Z,11.53
2023-04-18T20:15:37.195Z,11.91
2023-04-18T20:18:07.779Z,12.27
2023-04-18T20:20:36.581Z,12.29
2023-04-18T20:23:05.705Z,11.80
2023-04-18T20:25:34.937Z,11.57
2023-04-18T20:28:04.143Z,11.04
2023-04-18T20:30:32.950Z,10.76
2023-04-18T20:33:02.010Z,10.56
2023-04-18T20:35:34.371Z,10.56
2023-04-18T20:38:03.267Z,10.23
2023-04-18T20:40:33.334Z,10.06
2023-04-18T20:43:03.327Z,9.99
2023-04-18T20:45:34.733Z,10.06
2023-04-18T20:48:03.918Z,10.35
2023-04-18T20:50:33.930Z,10.89
2023-04-18T20:53:04.061Z,11.22
2023-04-18T20:55:32.961Z,11.43
2023-04-18T20:58:02.051Z,11.73
2023-04-18T21:00:33.467Z,11.84
2023-04-18T21:03:02.514Z,12.05
2023-04-18T21:05:31.580Z,12.26
2023-04-18T21:08:01.978Z,12.36
2023-04-18T21:10:30.850Z,12.38
2023-04-18T21:13:00.031Z,12.55
2023-04-18T21:15:28.650Z,12.62
2023-04-18T21:17:58.202Z,12.76
2023-04-18T21:20:26.918Z,12.84
2023-04-18T21:22:55.788Z,12.95
2023-04-18T21:25:25.902Z,13.06
2023-04-18T21:27:54.940Z,13.09
2023-04-18T21:30:23.616Z,13.15
2023-04-18T21:32:52.566Z,13.16
2023-04-18T21:35:23.339Z,13.17
2023-04-18T21:37:53.867Z,13.10
2023-04-18T21:40:22.744Z,13.07
2023-04-18T21:42:53.050Z,13.13
2023-04-18T21:45:21.962Z,13.10
2023-04-18T21:47:51.136Z,13.15
2023-04-18T21:50:19.721Z,13.16
2023-04-18T21:52:48.563Z,13.19
2023-04-18T21:55:17.202Z,13.20
2023-04-18T21:57:46.175Z,13.18
2023-04-18T22:00:17.315Z,13.24
2023-04-18T22:02:47.149Z,13.19
2023-04-18T22:05:16.320Z,13.22
2023-04-18T22:07:56.895Z,13.13
2023-04-18T22:10:26.484Z,12.99
2023-04-18T22:12:56.027Z,13.06
2023-04-18T22:15:27.568Z,12.74
2023-04-18T22:17:56.539Z,12.30
2023-04-18T22:20:27.048Z,12.47
2023-04-18T22:22:56.110Z,12.59
2023-04-18T22:25:24.765Z,12.69
2023-04-18T22:27:53.821Z,12.79
2023-04-18T22:30:22.668Z,12.83
2023-04-18T22:32:52.983Z,12.91
2023-04-18T22:35:21.561Z,12.87
2023-04-18T22:37:50.411Z,12.88
2023-04-18T22:40:19.117Z,12.86
2023-04-18T22:42:48.051Z,12.84
2023-04-18T22:45:16.689Z,12.82
2023-04-18T22:47:46.376Z,12.79
2023-04-18T22:50:16.707Z,12.78
2023-04-18T22:52:46.529Z,12.72
2023-04-18T22:55:16.555Z,12.64
2023-04-18T22:57:45.473Z,12.41
2023-04-18T23:00:14.852Z,12.42
2023-04-18T23:02:44.140Z,12.39
2023-04-18T23:05:15.524Z,12.39
2023-04-18T23:07:46.132Z,12.40
2023-04-18T23:10:14.765Z,12.34
2023-04-18T23:12:43.755Z,12.30
2023-04-18T23:15:12.802Z,12.25
2023-04-18T23:17:41.870Z,12.19
2023-04-18T23:20:12.475Z,12.18
2023-04-18T23:22:41.688Z,12.10
2023-04-18T23:25:11.838Z,12.14
2023-04-18T23:27:40.794Z,12.06
2023-04-18T23:30:10.347Z,11.97
2023-04-18T23:32:39.309Z,11.98
2023-04-18T23:35:08.213Z,11.92
2023-04-18T23:37:37.272Z,11.89
2023-04-18T23:40:07.128Z,11.89
2023-04-18T23:42:37.564Z,11.91
2023-04-18T23:45:07.112Z,11.80
2023-04-18T23:47:36.472Z,11.51
2023-04-18T23:50:05.756Z,11.43
2023-04-18T23:52:34.804Z,11.54
2023-04-18T23:55:03.753Z,11.58
2023-04-18T23:57:34.350Z,11.32
